sensor_id;sensor_type;location;lat;lon;timestamp;P1;durP1;ratioP1;P2;durP2;ratioP2
43998;SDS011;51319;52.162;5.302;2024-03-06T00:01:56;68.15;;;41.45;;
43998;SDS011;51319;52.162;5.302;2024-03-06T00:04:24;63.92;;;39.83;;
43998;SDS011;51319;52.162;5.302;2024-03-06T00:06:51;69.53;;;40.17;;
43998;SDS011;51319;52.162;5.302;2024-03-06T00:09:20;69.03;;;40.88;;
43998;SDS011;51319;52.162;5.302;2024-03-06T00:11:49;63.88;;;39.15;;
43998;SDS011;51319;52.162;5.302;2024-03-06T00:14:19;72.10;;;41.90;;
43998;SDS011;51319;52.162;5.302;2024-03-06T00:16:48;62.67;;;38.88;;
43998;SDS011;51319;52.162;5.302;2024-03-06T00:19:18;68.53;;;41.20;;
43998;SDS011;51319;52.162;5.302;2024-03-06T00:21:49;68.53;;;40.38;;
43998;SDS011;51319;52.162;5.302;2024-03-06T00:24:16;65.20;;;38.15;;
43998;SDS011;51319;52.162;5.302;2024-03-06T00:26:43;62.40;;;37.60;;
43998;SDS011;51319;52.162;5.302;2024-03-06T00:29:11;56.53;;;37.42;;
43998;SDS011;51319;52.162;5.302;2024-03-06T00:31:42;61.70;;;36.90;;
43998;SDS011;51319;52.162;5.302;2024-03-06T00:34:12;60.58;;;38.13;;
43998;SDS011;51319;52.162;5.302;2024-03-06T00:36:42;56.42;;;36.15;;
43998;SDS011;51319;52.162;5.302;2024-03-06T00:39:10;65.47;;;37.53;;
43998;SDS011;51319;52.162;5.302;2024-03-06T00:41:42;57.85;;;37.15;;
43998;SDS011;51319;52.162;5.302;2024-03-06T00:44:09;59.05;;;37.05;;
43998;SDS011;51319;52.162;5.302;2024-03-06T00:46:38;61.22;;;37.55;;
43998;SDS011;51319;52.162;5.302;2024-03-06T00:49:06;56.05;;;34.90;;
43998;SDS011;51319;52.162;5.302;2024-03-06T00:51:33;72.05;;;38.15;;
43998;SDS011;51319;52.162;5.302;2024-03-06T00:54:14;57.40;;;36.38;;
43998;SDS011;51319;52.162;5.302;2024-03-06T00:56:42;58.90;;;36.67;;
43998;SDS011;51319;52.162;5.302;2024-03-06T00:59:09;61.90;;;37.60;;
43998;SDS011;51319;52.162;5.302;2024-03-06T01:01:37;66.40;;;37.80;;
43998;SDS011;51319;52.162;5.302;2024-03-06T01:04:05;68.65;;;38.45;;
43998;SDS011;51319;52.162;5.302;2024-03-06T01:06:32;62.38;;;35.65;;
43998;SDS011;51319;52.162;5.302;2024-03-06T01:09:00;59.25;;;37.83;;
43998;SDS011;51319;52.162;5.302;2024-03-06T01:11:27;59.85;;;37.90;;
43998;SDS011;51319;52.162;5.302;2024-03-06T01:13:54;70.10;;;39.55;;
43998;SDS011;51319;52.162;5.302;2024-03-06T01:16:22;74.20;;;40.42;;
43998;SDS011;51319;52.162;5.302;2024-03-06T01:18:49;65.60;;;39.95;;
43998;SDS011;51319;52.162;5.302;2024-03-06T01:21:16;76.85;;;41.70;;
43998;SDS011;51319;52.162;5.302;2024-03-06T01:23:43;68.57;;;40.35;;
43998;SDS011;51319;52.162;5.302;2024-03-06T01:26:10;68.90;;;42.20;;
43998;SDS011;51319;52.162;5.302;2024-03-06T01:28:40;77.80;;;41.72;;
43998;SDS011;51319;52.162;5.302;2024-03-06T01:31:08;71.15;;;42.42;;
43998;SDS011;51319;52.162;5.302;2024-03-06T01:33:37;78.78;;;43.50;;
43998;SDS011;51319;52.162;5.302;2024-03-06T01:36:04;72.03;;;42.03;;
43998;SDS011;51319;52.162;5.302;2024-03-06T01:38:33;74.47;;;40.97;;
43998;SDS011;51319;52.162;5.302;2024-03-06T01:41:00;70.55;;;41.65;;
43998;SDS011;51319;52.162;5.302;2024-03-06T01:43:28;75.53;;;40.13;;
43998;SDS011;51319;52.162;5.302;2024-03-06T01:45:55;80.15;;;42.25;;
43998;SDS011;51319;52.162;5.302;2024-03-06T01:48:23;78.78;;;43.40;;
43998;SDS011;51319;52.162;5.302;2024-03-06T01:50:56;72.20;;;42.55;;
43998;SDS011;51319;52.162;5.302;2024-03-06T01:53:26;85.95;;;45.65;;
43998;SDS011;51319;52.162;5.302;2024-03-06T01:55:57;83.88;;;45.58;;
43998;SDS011;51319;52.162;5.302;2024-03-06T01:58:24;77.78;;;46.28;;
43998;SDS011;51319;52.162;5.302;2024-03-06T02:03:20;84.18;;;46.83;;
43998;SDS011;51319;52.162;5.302;2024-03-06T02:05:51;96.30;;;49.60;;
43998;SDS011;51319;52.162;5.302;2024-03-06T02:08:19;94.13;;;45.92;;
43998;SDS011;51319;52.162;5.302;2024-03-06T02:10:46;89.22;;;47.45;;
43998;SDS011;51319;52.162;5.302;2024-03-06T02:13:14;95.95;;;49.15;;
43998;SDS011;51319;52.162;5.302;2024-03-06T02:15:41;107.80;;;52.28;;
43998;SDS011;51319;52.162;5.302;2024-03-06T02:18:10;102.70;;;51.65;;
43998;SDS011;51319;52.162;5.302;2024-03-06T02:20:38;96.18;;;53.20;;
43998;SDS011;51319;52.162;5.302;2024-03-06T02:23:07;103.60;;;51.88;;
43998;SDS011;51319;52.162;5.302;2024-03-06T02:25:34;95.15;;;52.50;;
43998;SDS011;51319;52.162;5.302;2024-03-06T02:28:02;100.70;;;53.28;;
43998;SDS011;51319;52.162;5.302;2024-03-06T02:30:29;115.57;;;55.10;;
43998;SDS011;51319;52.162;5.302;2024-03-06T02:33:03;100.68;;;52.90;;
43998;SDS011;51319;52.162;5.302;2024-03-06T02:35:30;100.35;;;52.85;;
43998;SDS011;51319;52.162;5.302;2024-03-06T02:37:58;102.03;;;52.60;;
43998;SDS011;51319;52.162;5.302;2024-03-06T02:40:26;95.95;;;50.97;;
43998;SDS011;51319;52.162;5.302;2024-03-06T02:42:53;105.50;;;52.70;;
43998;SDS011;51319;52.162;5.302;2024-03-06T02:45:23;100.72;;;52.78;;
43998;SDS011;51319;52.162;5.302;2024-03-06T02:47:53;92.32;;;50.58;;
43998;SDS011;51319;52.162;5.302;2024-03-06T02:50:21;106.85;;;52.97;;
43998;SDS011;51319;52.162;5.302;2024-03-06T02:52:49;110.88;;;53.55;;
43998;SDS011;51319;52.162;5.302;2024-03-06T02:55:18;103.93;;;53.42;;
43998;SDS011;51319;52.162;5.302;2024-03-06T02:57:45;100.68;;;51.20;;
43998;SDS011;51319;52.162;5.302;2024-03-06T03:00:28;104.97;;;54.67;;
43998;SDS011;51319;52.162;5.302;2024-03-06T03:02:55;110.82;;;54.10;;
43998;SDS011;51319;52.162;5.302;2024-03-06T03:05:23;97.63;;;54.35;;
43998;SDS011;51319;52.162;5.302;2024-03-06T03:07:50;103.10;;;50.83;;
43998;SDS011;51319;52.162;5.302;2024-03-06T03:10:20;98.95;;;51.90;;
43998;SDS011;51319;52.162;5.302;2024-03-06T03:12:47;101.15;;;53.50;;
43998;SDS011;51319;52.162;5.302;2024-03-06T03:15:14;92.57;;;50.90;;
43998;SDS011;51319;52.162;5.302;2024-03-06T03:17:41;95.85;;;49.60;;
43998;SDS011;51319;52.162;5.302;2024-03-06T03:20:08;96.85;;;50.65;;
43998;SDS011;51319;52.162;5.302;2024-03-06T03:22:37;101.72;;;52.15;;
43998;SDS011;51319;52.162;5.302;2024-03-06T03:25:12;103.45;;;50.97;;
43998;SDS011;51319;52.162;5.302;2024-03-06T03:27:39;99.55;;;53.97;;
43998;SDS011;51319;52.162;5.302;2024-03-06T03:30:07;96.10;;;52.72;;
43998;SDS011;51319;52.162;5.302;2024-03-06T03:32:35;99.18;;;54.13;;
43998;SDS011;51319;52.162;5.302;2024-03-06T03:35:04;114.03;;;54.78;;
43998;SDS011;51319;52.162;5.302;2024-03-06T03:37:32;106.75;;;55.03;;
43998;SDS011;51319;52.162;5.302;2024-03-06T03:40:00;100.55;;;54.33;;
43998;SDS011;51319;52.162;5.302;2024-03-06T03:42:27;106.50;;;52.33;;
43998;SDS011;51319;52.162;5.302;2024-03-06T03:44:54;94.93;;;53.47;;
43998;SDS011;51319;52.162;5.302;2024-03-06T03:47:21;104.40;;;54.97;;
43998;SDS011;51319;52.162;5.302;2024-03-06T03:49:48;111.30;;;55.78;;
43998;SDS011;51319;52.162;5.302;2024-03-06T03:52:32;107.88;;;54.72;;
43998;SDS011;51319;52.162;5.302;2024-03-06T03:55:02;114.28;;;55.83;;
43998;SDS011;51319;52.162;5.302;2024-03-06T03:57:30;104.38;;;54.08;;
43998;SDS011;51319;52.162;5.302;2024-03-06T03:59:57;110.05;;;54.80;;
43998;SDS011;51319;52.162;5.302;2024-03-06T04:02:24;104.80;;;52.80;;
43998;SDS011;51319;52.162;5.302;2024-03-06T04:04:52;102.18;;;52.90;;
43998;SDS011;51319;52.162;5.302;2024-03-06T04:07:20;103.18;;;54.67;;
43998;SDS011;51319;52.162;5.302;2024-03-06T04:09:47;108.20;;;55.42;;
43998;SDS011;51319;52.162;5.302;2024-03-06T04:12:14;108.82;;;53.83;;
43998;SDS011;51319;52.162;5.302;2024-03-06T04:14:42;119.00;;;56.60;;
43998;SDS011;51319;52.162;5.302;2024-03-06T04:17:10;107.53;;;54.70;;
43998;SDS011;51319;52.162;5.302;2024-03-06T04:19:37;115.63;;;55.97;;
43998;SDS011;51319;52.162;5.302;2024-03-06T04:22:05;120.93;;;58.35;;
43998;SDS011;51319;52.162;5.302;2024-03-06T04:24:32;130.13;;;61.58;;
43998;SDS011;51319;52.162;5.302;2024-03-06T04:26:59;131.80;;;62.88;;
43998;SDS011;51319;52.162;5.302;2024-03-06T04:29:26;133.82;;;60.72;;
43998;SDS011;51319;52.162;5.302;2024-03-06T04:31:53;120.47;;;56.42;;
43998;SDS011;51319;52.162;5.302;2024-03-06T04:34:20;118.68;;;57.50;;
43998;SDS011;51319;52.162;5.302;2024-03-06T04:36:47;127.78;;;59.85;;
43998;SDS011;51319;52.162;5.302;2024-03-06T04:39:14;119.50;;;59.63;;
43998;SDS011;51319;52.162;5.302;2024-03-06T04:41:41;126.53;;;59.10;;
43998;SDS011;51319;52.162;5.302;2024-03-06T04:44:07;135.95;;;60.25;;
43998;SDS011;51319;52.162;5.302;2024-03-06T04:46:35;119.78;;;61.53;;
43998;SDS011;51319;52.162;5.302;2024-03-06T04:49:02;128.48;;;59.30;;
43998;SDS011;51319;52.162;5.302;2024-03-06T04:51:29;137.60;;;60.67;;
43998;SDS011;51319;52.162;5.302;2024-03-06T04:53:56;140.93;;;62.40;;
43998;SDS011;51319;52.162;5.302;2024-03-06T04:56:23;144.65;;;63.58;;
43998;SDS011;51319;52.162;5.302;2024-03-06T04:58:50;128.95;;;62.08;;
43998;SDS011;51319;52.162;5.302;2024-03-06T05:01:19;141.45;;;62.22;;
43998;SDS011;51319;52.162;5.302;2024-03-06T05:03:46;136.55;;;62.75;;
43998;SDS011;51319;52.162;5.302;2024-03-06T05:06:30;132.07;;;61.17;;
43998;SDS011;51319;52.162;5.302;2024-03-06T05:09:14;135.02;;;61.85;;
43998;SDS011;51319;52.162;5.302;2024-03-06T05:11:58;134.48;;;61.33;;
43998;SDS011;51319;52.162;5.302;2024-03-06T05:14:42;163.75;;;64.40;;
43998;SDS011;51319;52.162;5.302;2024-03-06T05:17:26;135.63;;;62.03;;
43998;SDS011;51319;52.162;5.302;2024-03-06T05:20:11;144.27;;;64.32;;
43998;SDS011;51319;52.162;5.302;2024-03-06T05:22:56;146.98;;;64.25;;
43998;SDS011;51319;52.162;5.302;2024-03-06T05:25:40;152.02;;;64.50;;
43998;SDS011;51319;52.162;5.302;2024-03-06T05:28:24;160.50;;;66.53;;
43998;SDS011;51319;52.162;5.302;2024-03-06T05:31:15;165.07;;;66.32;;
43998;SDS011;51319;52.162;5.302;2024-03-06T05:34:04;168.90;;;67.75;;
43998;SDS011;51319;52.162;5.302;2024-03-06T05:36:49;172.93;;;67.75;;
43998;SDS011;51319;52.162;5.302;2024-03-06T05:39:34;164.35;;;68.28;;
43998;SDS011;51319;52.162;5.302;2024-03-06T05:42:19;174.75;;;67.30;;
43998;SDS011;51319;52.162;5.302;2024-03-06T05:45:03;172.63;;;69.20;;
43998;SDS011;51319;52.162;5.302;2024-03-06T05:47:54;168.80;;;69.22;;
43998;SDS011;51319;52.162;5.302;2024-03-06T05:50:38;167.05;;;70.28;;
43998;SDS011;51319;52.162;5.302;2024-03-06T05:53:23;186.10;;;67.32;;
43998;SDS011;51319;52.162;5.302;2024-03-06T05:56:08;146.25;;;63.72;;
43998;SDS011;51319;52.162;5.302;2024-03-06T05:58:52;169.52;;;68.70;;
43998;SDS011;51319;52.162;5.302;2024-03-06T06:01:21;182.93;;;69.18;;
43998;SDS011;51319;52.162;5.302;2024-03-06T06:03:48;173.48;;;68.40;;
43998;SDS011;51319;52.162;5.302;2024-03-06T06:06:16;179.68;;;73.30;;
43998;SDS011;51319;52.162;5.302;2024-03-06T06:08:43;199.32;;;75.97;;
43998;SDS011;51319;52.162;5.302;2024-03-06T06:11:11;228.00;;;78.82;;
43998;SDS011;51319;52.162;5.302;2024-03-06T06:13:39;227.68;;;77.68;;
43998;SDS011;51319;52.162;5.302;2024-03-06T06:16:06;236.70;;;76.88;;
43998;SDS011;51319;52.162;5.302;2024-03-06T06:18:33;297.30;;;83.25;;
43998;SDS011;51319;52.162;5.302;2024-03-06T06:21:00;230.90;;;74.88;;
43998;SDS011;51319;52.162;5.302;2024-03-06T06:23:34;206.13;;;73.72;;
43998;SDS011;51319;52.162;5.302;2024-03-06T06:26:01;249.68;;;81.32;;
43998;SDS011;51319;52.162;5.302;2024-03-06T06:28:28;213.68;;;73.03;;
43998;SDS011;51319;52.162;5.302;2024-03-06T06:30:58;199.45;;;72.65;;
43998;SDS011;51319;52.162;5.302;2024-03-06T06:33:25;252.52;;;82.07;;
43998;SDS011;51319;52.162;5.302;2024-03-06T06:35:52;249.38;;;81.20;;
43998;SDS011;51319;52.162;5.302;2024-03-06T06:38:20;269.65;;;84.38;;
43998;SDS011;51319;52.162;5.302;2024-03-06T06:40:48;251.73;;;84.75;;
43998;SDS011;51319;52.162;5.302;2024-03-06T06:43:19;237.40;;;83.65;;
43998;SDS011;51319;52.162;5.302;2024-03-06T06:45:47;276.00;;;94.75;;
43998;SDS011;51319;52.162;5.302;2024-03-06T06:48:20;287.33;;;89.25;;
43998;SDS011;51319;52.162;5.302;2024-03-06T06:50:47;231.95;;;76.38;;
43998;SDS011;51319;52.162;5.302;2024-03-06T06:53:14;254.70;;;84.82;;
43998;SDS011;51319;52.162;5.302;2024-03-06T06:55:42;325.40;;;90.60;;
43998;SDS011;51319;52.162;5.302;2024-03-06T06:58:08;266.15;;;85.68;;
43998;SDS011;51319;52.162;5.302;2024-03-06T07:00:37;289.35;;;85.93;;
43998;SDS011;51319;52.162;5.302;2024-03-06T07:03:04;236.45;;;83.28;;
43998;SDS011;51319;52.162;5.302;2024-03-06T07:05:31;462.48;;;102.70;;
43998;SDS011;51319;52.162;5.302;2024-03-06T07:07:58;258.90;;;80.93;;
43998;SDS011;51319;52.162;5.302;2024-03-06T07:10:26;306.55;;;78.03;;
43998;SDS011;51319;52.162;5.302;2024-03-06T07:12:54;354.25;;;106.65;;
43998;SDS011;51319;52.162;5.302;2024-03-06T07:15:21;345.33;;;83.38;;
43998;SDS011;51319;52.162;5.302;2024-03-06T07:17:48;348.20;;;85.10;;
43998;SDS011;51319;52.162;5.302;2024-03-06T07:20:15;417.10;;;83.32;;
43998;SDS011;51319;52.162;5.302;2024-03-06T07:22:48;351.88;;;82.03;;
43998;SDS011;51319;52.162;5.302;2024-03-06T07:25:17;377.48;;;80.25;;
43998;SDS011;51319;52.162;5.302;2024-03-06T07:27:44;408.00;;;84.00;;
43998;SDS011;51319;52.162;5.302;2024-03-06T07:30:11;262.20;;;70.90;;
43998;SDS011;51319;52.162;5.302;2024-03-06T07:32:40;250.85;;;72.40;;
43998;SDS011;51319;52.162;5.302;2024-03-06T07:35:07;203.25;;;58.92;;
43998;SDS011;51319;52.162;5.302;2024-03-06T07:37:35;276.63;;;71.15;;
43998;SDS011;51319;52.162;5.302;2024-03-06T07:40:02;185.80;;;71.18;;
43998;SDS011;51319;52.162;5.302;2024-03-06T07:42:31;253.73;;;67.72;;
43998;SDS011;51319;52.162;5.302;2024-03-06T07:44:59;192.75;;;70.28;;
43998;SDS011;51319;52.162;5.302;2024-03-06T07:47:27;170.85;;;62.58;;
43998;SDS011;51319;52.162;5.302;2024-03-06T07:49:54;134.73;;;55.83;;
43998;SDS011;51319;52.162;5.302;2024-03-06T07:52:22;127.72;;;51.08;;
43998;SDS011;51319;52.162;5.302;2024-03-06T07:54:50;142.35;;;62.13;;
43998;SDS011;51319;52.162;5.302;2024-03-06T07:57:17;133.55;;;65.18;;
43998;SDS011;51319;52.162;5.302;2024-03-06T07:59:44;136.48;;;63.15;;
43998;SDS011;51319;52.162;5.302;2024-03-06T08:02:11;135.05;;;64.13;;
43998;SDS011;51319;52.162;5.302;2024-03-06T08:12:45;125.40;;;60.80;;
43998;SDS011;51319;52.162;5.302;2024-03-06T08:15:14;121.80;;;57.42;;
43998;SDS011;51319;52.162;5.302;2024-03-06T08:17:42;121.47;;;60.78;;
43998;SDS011;51319;52.162;5.302;2024-03-06T08:20:10;100.75;;;51.35;;
43998;SDS011;51319;52.162;5.302;2024-03-06T08:22:38;95.65;;;53.30;;
43998;SDS011;51319;52.162;5.302;2024-03-06T08:25:06;89.63;;;50.53;;
43998;SDS011;51319;52.162;5.302;2024-03-06T08:27:35;89.25;;;49.17;;
43998;SDS011;51319;52.162;5.302;2024-03-06T08:30:03;76.30;;;45.58;;
43998;SDS011;51319;52.162;5.302;2024-03-06T08:32:31;73.45;;;43.85;;
43998;SDS011;51319;52.162;5.302;2024-03-06T08:35:03;70.50;;;41.72;;
43998;SDS011;51319;52.162;5.302;2024-03-06T08:37:41;82.80;;;39.45;;
43998;SDS011;51319;52.162;5.302;2024-03-06T08:40:09;67.32;;;40.83;;
43998;SDS011;51319;52.162;5.302;2024-03-06T08:42:41;65.90;;;40.30;;
43998;SDS011;51319;52.162;5.302;2024-03-06T08:45:09;63.13;;;36.42;;
43998;SDS011;51319;52.162;5.302;2024-03-06T08:47:37;69.35;;;38.33;;
43998;SDS011;51319;52.162;5.302;2024-03-06T08:50:04;69.78;;;41.70;;
43998;SDS011;51319;52.162;5.302;2024-03-06T08:52:34;65.63;;;38.22;;
43998;SDS011;51319;52.162;5.302;2024-03-06T08:55:02;57.10;;;35.58;;
43998;SDS011;51319;52.162;5.302;2024-03-06T08:57:33;56.15;;;37.47;;
43998;SDS011;51319;52.162;5.302;2024-03-06T09:00:01;59.05;;;35.72;;
43998;SDS011;51319;52.162;5.302;2024-03-06T09:02:29;51.33;;;32.65;;
43998;SDS011;51319;52.162;5.302;2024-03-06T09:04:57;51.88;;;33.70;;
43998;SDS011;51319;52.162;5.302;2024-03-06T09:07:24;49.85;;;33.33;;
43998;SDS011;51319;52.162;5.302;2024-03-06T09:09:52;49.67;;;34.65;;
43998;SDS011;51319;52.162;5.302;2024-03-06T09:12:19;48.97;;;33.33;;
43998;SDS011;51319;52.162;5.302;2024-03-06T09:14:47;51.70;;;34.47;;
43998;SDS011;51319;52.162;5.302;2024-03-06T09:17:14;53.80;;;36.17;;
43998;SDS011;51319;52.162;5.302;2024-03-06T09:19:41;53.38;;;35.35;;
43998;SDS011;51319;52.162;5.302;2024-03-06T09:22:28;57.95;;;37.70;;
43998;SDS011;51319;52.162;5.302;2024-03-06T09:24:55;56.55;;;34.97;;
43998;SDS011;51319;52.162;5.302;2024-03-06T09:27:22;53.88;;;36.15;;
43998;SDS011;51319;52.162;5.302;2024-03-06T09:29:51;49.60;;;34.80;;
43998;SDS011;51319;52.162;5.302;2024-03-06T09:59:35;42.17;;;31.27;;
43998;SDS011;51319;52.162;5.302;2024-03-06T10:02:06;41.55;;;30.05;;
43998;SDS011;51319;52.162;5.302;2024-03-06T10:10:16;33.85;;;25.02;;
43998;SDS011;51319;52.162;5.302;2024-03-06T10:15:19;30.15;;;25.20;;
43998;SDS011;51319;52.162;5.302;2024-03-06T10:17:48;30.58;;;23.35;;
43998;SDS011;51319;52.162;5.302;2024-03-06T10:20:18;30.67;;;24.75;;
43998;SDS011;51319;52.162;5.302;2024-03-06T10:22:47;25.55;;;22.23;;
43998;SDS011;51319;52.162;5.302;2024-03-06T10:25:24;25.17;;;22.48;;
43998;SDS011;51319;52.162;5.302;2024-03-06T10:36:10;34.80;;;22.00;;
43998;SDS011;51319;52.162;5.302;2024-03-06T10:38:37;23.50;;;20.95;;
43998;SDS011;51319;52.162;5.302;2024-03-06T10:41:08;25.58;;;20.25;;
43998;SDS011;51319;52.162;5.302;2024-03-06T11:15:09;13.10;;;11.55;;
43998;SDS011;51319;52.162;5.302;2024-03-06T11:17:47;15.45;;;13.50;;
43998;SDS011;51319;52.162;5.302;2024-03-06T11:47:22;8.65;;;6.65;;
43998;SDS011;51319;52.162;5.302;2024-03-06T11:49:52;10.02;;;8.05;;
43998;SDS011;51319;52.162;5.302;2024-03-06T11:52:20;9.98;;;8.15;;
43998;SDS011;51319;52.162;5.302;2024-03-06T11:54:47;9.43;;;7.90;;
43998;SDS011;51319;52.162;5.302;2024-03-06T12:24:21;11.23;;;7.95;;
43998;SDS011;51319;52.162;5.302;2024-03-06T12:26:57;10.10;;;7.53;;
43998;SDS011;51319;52.162;5.302;2024-03-06T12:29:30;10.35;;;7.35;;
43998;SDS011;51319;52.162;5.302;2024-03-06T12:31:59;11.02;;;7.03;;
43998;SDS011;51319;52.162;5.302;2024-03-06T12:34:27;9.68;;;6.25;;
43998;SDS011;51319;52.162;5.302;2024-03-06T12:37:28;8.50;;;7.68;;
43998;SDS011;51319;52.162;5.302;2024-03-06T12:39:55;8.68;;;6.88;;
43998;SDS011;51319;52.162;5.302;2024-03-06T12:42:23;8.77;;;6.35;;
43998;SDS011;51319;52.162;5.302;2024-03-06T12:44:54;8.30;;;6.63;;
43998;SDS011;51319;52.162;5.302;2024-03-06T12:47:21;8.95;;;5.82;;
43998;SDS011;51319;52.162;5.302;2024-03-06T12:49:49;8.02;;;5.88;;
43998;SDS011;51319;52.162;5.302;2024-03-06T12:52:17;8.95;;;5.60;;
43998;SDS011;51319;52.162;5.302;2024-03-06T12:54:44;8.95;;;6.47;;
43998;SDS011;51319;52.162;5.302;2024-03-06T12:57:12;8.45;;;5.82;;
43998;SDS011;51319;52.162;5.302;2024-03-06T12:59:40;7.20;;;6.05;;
43998;SDS011;51319;52.162;5.302;2024-03-06T13:02:09;7.63;;;5.53;;
43998;SDS011;51319;52.162;5.302;2024-03-06T13:04:36;6.45;;;5.20;;
43998;SDS011;51319;52.162;5.302;2024-03-06T13:07:03;9.32;;;4.50;;
43998;SDS011;51319;52.162;5.302;2024-03-06T13:09:31;8.23;;;6.15;;
43998;SDS011;51319;52.162;5.302;2024-03-06T13:11:59;8.48;;;6.13;;
43998;SDS011;51319;52.162;5.302;2024-03-06T13:14:26;7.68;;;5.35;;
43998;SDS011;51319;52.162;5.302;2024-03-06T13:16:54;6.75;;;4.43;;
43998;SDS011;51319;52.162;5.302;2024-03-06T13:19:22;5.60;;;4.35;;
43998;SDS011;51319;52.162;5.302;2024-03-06T13:21:50;7.72;;;5.93;;
43998;SDS011;51319;52.162;5.302;2024-03-06T13:24:17;8.45;;;5.35;;
43998;SDS011;51319;52.162;5.302;2024-03-06T13:26:44;5.30;;;3.70;;
43998;SDS011;51319;52.162;5.302;2024-03-06T13:29:14;7.00;;;5.10;;
43998;SDS011;51319;52.162;5.302;2024-03-06T13:31:41;13.05;;;5.18;;
43998;SDS011;51319;52.162;5.302;2024-03-06T13:34:08;7.07;;;4.90;;
43998;SDS011;51319;52.162;5.302;2024-03-06T13:36:35;9.98;;;5.18;;
43998;SDS011;51319;52.162;5.302;2024-03-06T13:39:02;7.47;;;4.93;;
43998;SDS011;51319;52.162;5.302;2024-03-06T13:41:32;9.10;;;5.03;;
43998;SDS011;51319;52.162;5.302;2024-03-06T13:43:59;7.13;;;4.25;;
43998;SDS011;51319;52.162;5.302;2024-03-06T13:49:34;4.90;;;4.40;;
43998;SDS011;51319;52.162;5.302;2024-03-06T13:52:07;6.05;;;4.47;;
43998;SDS011;51319;52.162;5.302;2024-03-06T13:54:40;6.75;;;4.53;;
43998;SDS011;51319;52.162;5.302;2024-03-06T13:57:08;5.90;;;4.30;;
43998;SDS011;51319;52.162;5.302;2024-03-06T13:59:37;6.80;;;4.00;;
43998;SDS011;51319;52.162;5.302;2024-03-06T14:02:05;6.70;;;4.32;;
43998;SDS011;51319;52.162;5.302;2024-03-06T14:04:33;7.47;;;5.10;;
43998;SDS011;51319;52.162;5.302;2024-03-06T14:07:00;7.35;;;5.20;;
43998;SDS011;51319;52.162;5.302;2024-03-06T14:09:29;8.15;;;5.50;;
43998;SDS011;51319;52.162;5.302;2024-03-06T14:11:56;8.80;;;4.93;;
43998;SDS011;51319;52.162;5.302;2024-03-06T14:14:25;7.88;;;5.00;;
43998;SDS011;51319;52.162;5.302;2024-03-06T14:16:52;13.48;;;5.88;;
43998;SDS011;51319;52.162;5.302;2024-03-06T14:19:22;9.65;;;5.32;;
43998;SDS011;51319;52.162;5.302;2024-03-06T14:21:52;7.25;;;4.95;;
43998;SDS011;51319;52.162;5.302;2024-03-06T14:24:19;11.23;;;6.05;;
43998;SDS011;51319;52.162;5.302;2024-03-06T14:26:47;11.77;;;5.93;;
43998;SDS011;51319;52.162;5.302;2024-03-06T14:29:15;7.18;;;5.68;;
43998;SDS011;51319;52.162;5.302;2024-03-06T14:31:42;8.02;;;5.28;;
43998;SDS011;51319;52.162;5.302;2024-03-06T14:34:09;7.10;;;5.20;;
43998;SDS011;51319;52.162;5.302;2024-03-06T14:36:37;8.00;;;5.18;;
43998;SDS011;51319;52.162;5.302;2024-03-06T14:39:05;5.93;;;5.28;;
43998;SDS011;51319;52.162;5.302;2024-03-06T14:41:33;8.48;;;5.60;;
43998;SDS011;51319;52.162;5.302;2024-03-06T14:44:00;8.70;;;5.03;;
43998;SDS011;51319;52.162;5.302;2024-03-06T14:46:27;8.00;;;5.03;;
43998;SDS011;51319;52.162;5.302;2024-03-06T14:48:55;11.60;;;7.82;;
43998;SDS011;51319;52.162;5.302;2024-03-06T14:51:22;9.95;;;6.05;;
43998;SDS011;51319;52.162;5.302;2024-03-06T14:53:49;8.23;;;5.30;;
43998;SDS011;51319;52.162;5.302;2024-03-06T14:56:17;8.13;;;5.70;;
43998;SDS011;51319;52.162;5.302;2024-03-06T14:58:44;9.52;;;6.65;;
43998;SDS011;51319;52.162;5.302;2024-03-06T15:01:11;7.72;;;5.93;;
43998;SDS011;51319;52.162;5.302;2024-03-06T15:03:39;12.00;;;6.28;;
43998;SDS011;51319;52.162;5.302;2024-03-06T15:06:06;8.70;;;6.32;;
43998;SDS011;51319;52.162;5.302;2024-03-06T15:08:34;12.40;;;7.47;;
43998;SDS011;51319;52.162;5.302;2024-03-06T15:11:02;12.57;;;8.00;;
43998;SDS011;51319;52.162;5.302;2024-03-06T15:13:29;8.73;;;6.93;;
43998;SDS011;51319;52.162;5.302;2024-03-06T15:15:56;14.32;;;7.70;;
43998;SDS011;51319;52.162;5.302;2024-03-06T15:18:23;12.80;;;7.22;;
43998;SDS011;51319;52.162;5.302;2024-03-06T15:20:51;9.02;;;6.55;;
43998;SDS011;51319;52.162;5.302;2024-03-06T15:23:19;14.63;;;6.97;;
43998;SDS011;51319;52.162;5.302;2024-03-06T15:25:47;10.05;;;6.75;;
43998;SDS011;51319;52.162;5.302;2024-03-06T15:28:14;9.65;;;6.72;;
43998;SDS011;51319;52.162;5.302;2024-03-06T15:30:42;14.38;;;9.25;;
43998;SDS011;51319;52.162;5.302;2024-03-06T15:33:10;12.43;;;7.35;;
43998;SDS011;51319;52.162;5.302;2024-03-06T15:35:37;10.88;;;7.43;;
43998;SDS011;51319;52.162;5.302;2024-03-06T15:38:05;13.25;;;7.60;;
43998;SDS011;51319;52.162;5.302;2024-03-06T15:40:32;13.93;;;8.70;;
43998;SDS011;51319;52.162;5.302;2024-03-06T15:42:59;12.85;;;7.82;;
43998;SDS011;51319;52.162;5.302;2024-03-06T15:45:29;13.30;;;7.88;;
43998;SDS011;51319;52.162;5.302;2024-03-06T15:47:56;9.57;;;7.60;;
43998;SDS011;51319;52.162;5.302;2024-03-06T15:50:23;12.98;;;7.93;;
43998;SDS011;51319;52.162;5.302;2024-03-06T15:52:50;17.88;;;7.72;;
43998;SDS011;51319;52.162;5.302;2024-03-06T15:55:17;14.20;;;9.98;;
43998;SDS011;51319;52.162;5.302;2024-03-06T15:57:45;35.53;;;20.60;;
43998;SDS011;51319;52.162;5.302;2024-03-06T16:00:12;31.02;;;18.20;;
43998;SDS011;51319;52.162;5.302;2024-03-06T16:02:43;15.45;;;9.93;;
43998;SDS011;51319;52.162;5.302;2024-03-06T16:05:11;18.50;;;11.07;;
43998;SDS011;51319;52.162;5.302;2024-03-06T16:07:38;20.65;;;15.02;;
43998;SDS011;51319;52.162;5.302;2024-03-06T16:10:16;19.05;;;13.07;;
43998;SDS011;51319;52.162;5.302;2024-03-06T16:12:44;17.02;;;11.68;;
43998;SDS011;51319;52.162;5.302;2024-03-06T16:15:11;15.15;;;9.38;;
43998;SDS011;51319;52.162;5.302;2024-03-06T16:17:38;14.50;;;9.00;;
43998;SDS011;51319;52.162;5.302;2024-03-06T16:22:43;14.55;;;8.85;;
43998;SDS011;51319;52.162;5.302;2024-03-06T16:25:10;14.20;;;8.95;;
43998;SDS011;51319;52.162;5.302;2024-03-06T16:27:37;13.13;;;10.07;;
43998;SDS011;51319;52.162;5.302;2024-03-06T16:30:04;18.23;;;10.88;;
43998;SDS011;51319;52.162;5.302;2024-03-06T16:32:35;16.58;;;10.20;;
43998;SDS011;51319;52.162;5.302;2024-03-06T16:35:02;15.57;;;10.68;;
43998;SDS011;51319;52.162;5.302;2024-03-06T16:37:30;17.38;;;12.23;;
43998;SDS011;51319;52.162;5.302;2024-03-06T16:39:57;21.10;;;13.43;;
43998;SDS011;51319;52.162;5.302;2024-03-06T16:42:25;26.45;;;15.60;;
43998;SDS011;51319;52.162;5.302;2024-03-06T16:44:51;23.33;;;14.95;;
43998;SDS011;51319;52.162;5.302;2024-03-06T16:47:18;24.10;;;16.75;;
43998;SDS011;51319;52.162;5.302;2024-03-06T16:49:45;24.52;;;16.77;;
43998;SDS011;51319;52.162;5.302;2024-03-06T16:52:12;25.27;;;17.65;;
43998;SDS011;51319;52.162;5.302;2024-03-06T16:54:39;26.50;;;16.67;;
43998;SDS011;51319;52.162;5.302;2024-03-06T16:57:08;28.85;;;18.92;;
43998;SDS011;51319;52.162;5.302;2024-03-06T16:59:37;30.00;;;19.30;;
43998;SDS011;51319;52.162;5.302;2024-03-06T17:02:04;40.15;;;24.70;;